sensor_id;sensor_type;location;lat;lon;timestamp;pressure;altitude;pressure_sealevel;temperature;humidity
8298;BME280;4187;42.778;23.242;2022-09-29T00:00:48;94422.59;;;16.37;100.00
8298;BME280;4187;42.778;23.242;2022-09-29T00:03:15;94424.44;;;16.36;100.00
8298;BME280;4187;42.778;23.242;2022-09-29T00:05:46;94424.44;;;16.36;100.00
8298;BME280;4187;42.778;23.242;2022-09-29T00:08:14;94421.16;;;16.34;100.00
8298;BME280;4187;42.778;23.242;2022-09-29T00:10:43;94421.16;;;16.34;100.00
8298;BME280;4187;42.778;23.242;2022-09-29T00:13:10;94422.81;;;16.35;100.00
8298;BME280;4187;42.778;23.242;2022-09-29T00:15:37;94422.81;;;16.35;100.00
8298;BME280;4187;42.778;23.242;2022-09-29T00:18:04;63944.91;;;-141.81;100.00
8298;BME280;4187;42.778;23.242;2022-09-29T00:20:31;94424.66;;;16.35;100.00
8298;BME280;4187;42.778;23.242;2022-09-29T00:22:58;94425.69;;;16.40;100.00
8298;BME280;4187;42.778;23.242;2022-09-29T00:25:25;94431.19;;;16.39;100.00
8298;BME280;4187;42.778;23.242;2022-09-29T00:27:53;94432.25;;;16.38;100.00
8298;BME280;4187;42.778;23.242;2022-09-29T00:30:20;94421.16;;;16.34;100.00
8298;BME280;4187;42.778;23.242;2022-09-29T00:32:46;94424.81;;;16.33;100.00
8298;BME280;4187;42.778;23.242;2022-09-29T00:35:13;94421.94;;;16.28;100.00
8298;BME280;4187;42.778;23.242;2022-09-29T00:37:42;94420.94;;;16.29;100.00
8298;BME280;4187;42.778;23.242;2022-09-29T00:40:09;94424.03;;;16.33;100.00
8298;BME280;4187;42.778;23.242;2022-09-29T00:42:36;63944.91;;;-141.81;100.00
8298;BME280;4187;42.778;23.242;2022-09-29T00:45:22;94423.03;;;16.40;100.00
8298;BME280;4187;42.778;23.242;2022-09-29T00:47:54;94419.97;;;16.43;100.00
8298;BME280;4187;42.778;23.242;2022-09-29T00:50:30;94411.97;;;16.43;100.00
8298;BME280;4187;42.778;23.242;2022-09-29T00:53:01;94408.06;;;16.39;100.00
8298;BME280;4187;42.778;23.242;2022-09-29T00:55:35;63944.91;;;-141.81;100.00
8298;BME280;4187;42.778;23.242;2022-09-29T00:58:06;94414.00;;;16.35;100.00
8298;BME280;4187;42.778;23.242;2022-09-29T01:00:36;94398.03;;;16.35;100.00
8298;BME280;4187;42.778;23.242;2022-09-29T01:03:07;94411.72;;;16.38;100.00
8298;BME280;4187;42.778;23.242;2022-09-29T01:05:38;94398.00;;;16.41;100.00
8298;BME280;4187;42.778;23.242;2022-09-29T01:08:11;94375.06;;;16.27;100.00
8298;BME280;4187;42.778;23.242;2022-09-29T01:10:40;94406.22;;;16.40;100.00
8298;BME280;4187;42.778;23.242;2022-09-29T01:13:09;94401.06;;;16.38;100.00
8298;BME280;4187;42.778;23.242;2022-09-29T01:15:38;63944.91;;;-141.81;100.00
8298;BME280;4187;42.778;23.242;2022-09-29T01:18:05;94403.75;;;16.32;100.00
8298;BME280;4187;42.778;23.242;2022-09-29T01:20:34;94405.41;;;16.33;100.00
8298;BME280;4187;42.778;23.242;2022-09-29T01:29:13;94409.25;;;16.30;100.00
8298;BME280;4187;42.778;23.242;2022-09-29T01:31:53;63944.91;;;-141.81;100.00
8298;BME280;4187;42.778;23.242;2022-09-29T01:34:27;94415.00;;;16.27;100.00
8298;BME280;4187;42.778;23.242;2022-09-29T01:37:04;94408.25;;;16.25;100.00
8298;BME280;4187;42.778;23.242;2022-09-29T01:39:35;94411.31;;;16.22;100.00
8298;BME280;4187;42.778;23.242;2022-09-29T01:42:07;94413.97;;;16.22;100.00
8298;BME280;4187;42.778;23.242;2022-09-29T01:44:41;94422.31;;;16.12;100.00
8298;BME280;4187;42.778;23.242;2022-09-29T01:47:11;94421.50;;;16.18;100.00
8298;BME280;4187;42.778;23.242;2022-09-29T01:49:42;63944.91;;;-141.81;100.00
8298;BME280;4187;42.778;23.242;2022-09-29T01:52:12;94431.59;;;16.29;100.00
8298;BME280;4187;42.778;23.242;2022-09-29T01:54:46;94427.66;;;16.25;100.00
8298;BME280;4187;42.778;23.242;2022-09-29T01:57:17;94423.56;;;16.23;100.00
8298;BME280;4187;42.778;23.242;2022-09-29T01:59:50;94424.00;;;16.26;100.00
8298;BME280;4187;42.778;23.242;2022-09-29T02:02:26;94424.00;;;16.26;100.00
8298;BME280;4187;42.778;23.242;2022-09-29T02:04:58;63944.91;;;-141.81;100.00
8298;BME280;4187;42.778;23.242;2022-09-29T02:07:30;94429.31;;;16.26;100.00
8298;BME280;4187;42.778;23.242;2022-09-29T02:10:02;94429.31;;;16.26;100.00
8298;BME280;4187;42.778;23.242;2022-09-29T02:12:32;94430.13;;;16.20;100.00
8298;BME280;4187;42.778;23.242;2022-09-29T02:15:02;94422.50;;;16.10;100.00
8298;BME280;4187;42.778;23.242;2022-09-29T02:17:36;94425.22;;;16.24;100.00
8298;BME280;4187;42.778;23.242;2022-09-29T02:20:05;94431.56;;;16.16;100.00
8298;BME280;4187;42.778;23.242;2022-09-29T02:22:34;94433.56;;;16.14;100.00
8298;BME280;4187;42.778;23.242;2022-09-29T02:25:02;94432.13;;;16.11;100.00
8298;BME280;4187;42.778;23.242;2022-09-29T02:27:29;63944.91;;;-141.81;100.00
8298;BME280;4187;42.778;23.242;2022-09-29T02:29:58;94414.97;;;16.21;100.00
8298;BME280;4187;42.778;23.242;2022-09-29T02:32:25;94412.34;;;16.27;100.00
8298;BME280;4187;42.778;23.242;2022-09-29T02:34:54;94412.34;;;16.27;100.00
8298;BME280;4187;42.778;23.242;2022-09-29T02:37:30;94379.72;;;16.12;100.00
8298;BME280;4187;42.778;23.242;2022-09-29T02:40:10;63944.91;;;-141.81;100.00
8298;BME280;4187;42.778;23.242;2022-09-29T02:42:48;94398.13;;;16.07;100.00
8298;BME280;4187;42.778;23.242;2022-09-29T02:45:29;94407.16;;;16.12;100.00
8298;BME280;4187;42.778;23.242;2022-09-29T02:48:12;94417.59;;;16.07;100.00
8298;BME280;4187;42.778;23.242;2022-09-29T02:51:05;63944.91;;;-141.81;100.00
8298;BME280;4187;42.778;23.242;2022-09-29T02:53:54;94424.09;;;15.98;100.00
8298;BME280;4187;42.778;23.242;2022-09-29T02:56:33;94425.31;;;15.96;100.00
8298;BME280;4187;42.778;23.242;2022-09-29T02:59:07;94416.91;;;15.92;100.00
8298;BME280;4187;42.778;23.242;2022-09-29T03:01:46;94419.72;;;15.84;100.00
8298;BME280;4187;42.778;23.242;2022-09-29T03:04:15;94425.84;;;15.78;100.00
8298;BME280;4187;42.778;23.242;2022-09-29T03:06:43;94438.94;;;15.80;100.00
8298;BME280;4187;42.778;23.242;2022-09-29T03:09:10;94427.09;;;15.82;100.00
8298;BME280;4187;42.778;23.242;2022-09-29T03:11:37;94434.25;;;15.82;100.00
8298;BME280;4187;42.778;23.242;2022-09-29T03:14:04;94434.63;;;15.79;100.00
8298;BME280;4187;42.778;23.242;2022-09-29T03:16:32;94442.22;;;15.75;100.00
8298;BME280;4187;42.778;23.242;2022-09-29T03:18:59;94449.16;;;15.76;100.00
8298;BME280;4187;42.778;23.242;2022-09-29T03:21:26;94464.31;;;15.76;100.00
8298;BME280;4187;42.778;23.242;2022-09-29T03:23:55;94469.53;;;15.63;100.00
8298;BME280;4187;42.778;23.242;2022-09-29T03:26:22;94472.16;;;15.56;100.00
8298;BME280;4187;42.778;23.242;2022-09-29T03:28:49;94469.84;;;15.46;100.00
8298;BME280;4187;42.778;23.242;2022-09-29T03:31:16;94476.31;;;15.37;100.00
8298;BME280;4187;42.778;23.242;2022-09-29T03:33:43;94467.63;;;15.29;100.00
8298;BME280;4187;42.778;23.242;2022-09-29T03:36:10;63944.91;;;-141.81;100.00
8298;BME280;4187;42.778;23.242;2022-09-29T03:38:37;63944.91;;;-141.81;100.00
8298;BME280;4187;42.778;23.242;2022-09-29T03:41:06;94467.63;;;15.29;100.00
8298;BME280;4187;42.778;23.242;2022-09-29T03:43:33;94475.00;;;15.27;100.00
8298;BME280;4187;42.778;23.242;2022-09-29T03:45:59;94475.00;;;15.27;100.00
8298;BME280;4187;42.778;23.242;2022-09-29T03:48:26;94449.50;;;15.11;100.00
8298;BME280;4187;42.778;23.242;2022-09-29T03:50:56;63944.91;;;-141.81;nan
8298;BME280;4187;42.778;23.242;2022-09-29T03:53:23;94464.53;;;15.25;100.00
8298;BME280;4187;42.778;23.242;2022-09-29T03:55:50;94464.53;;;15.25;100.00
8298;BME280;4187;42.778;23.242;2022-09-29T03:58:18;63944.91;;;-141.81;100.00
8298;BME280;4187;42.778;23.242;2022-09-29T04:00:47;94464.53;;;15.25;100.00
8298;BME280;4187;42.778;23.242;2022-09-29T04:03:14;63944.91;;;-141.81;100.00
8298;BME280;4187;42.778;23.242;2022-09-29T04:05:44;63944.91;;;-141.81;100.00
8298;BME280;4187;42.778;23.242;2022-09-29T04:08:11;94464.53;;;15.25;100.00
8298;BME280;4187;42.778;23.242;2022-09-29T04:10:38;94418.84;;;-141.81;100.00
8298;BME280;4187;42.778;23.242;2022-09-29T04:13:06;63944.91;;;-141.81;100.00
8298;BME280;4187;42.778;23.242;2022-09-29T04:15:35;63944.91;;;-141.81;100.00
8298;BME280;4187;42.778;23.242;2022-09-29T04:18:02;63944.91;;;-141.81;100.00
8298;BME280;4187;42.778;23.242;2022-09-29T04:20:30;63944.91;;;-141.81;100.00
8298;BME280;4187;42.778;23.242;2022-09-29T04:22:58;94418.84;;;14.87;100.00
8298;BME280;4187;42.778;23.242;2022-09-29T04:25:25;63944.91;;;-141.81;nan
8298;BME280;4187;42.778;23.242;2022-09-29T04:27:53;63944.91;;;-141.81;100.00
8298;BME280;4187;42.778;23.242;2022-09-29T04:30:20;63944.91;;;-141.81;100.00
8298;BME280;4187;42.778;23.242;2022-09-29T04:32:48;71310.44;;;-141.81;100.00
8298;BME280;4187;42.778;23.242;2022-09-29T04:35:15;63944.91;;;-141.81;100.00
8298;BME280;4187;42.778;23.242;2022-09-29T04:37:41;63944.91;;;-141.81;100.00
8298;BME280;4187;42.778;23.242;2022-09-29T04:40:09;63944.91;;;-141.81;100.00
8298;BME280;4187;42.778;23.242;2022-09-29T04:42:36;63944.91;;;-141.81;100.00
8298;BME280;4187;42.778;23.242;2022-09-29T04:45:04;63944.91;;;-141.81;100.00
8298;BME280;4187;42.778;23.242;2022-09-29T04:47:30;63944.91;;;-141.81;100.00
8298;BME280;4187;42.778;23.242;2022-09-29T04:49:59;63944.91;;;-141.81;100.00
8298;BME280;4187;42.778;23.242;2022-09-29T04:52:25;63944.91;;;-141.81;100.00
8298;BME280;4187;42.778;23.242;2022-09-29T04:54:52;63944.91;;;-141.81;100.00
8298;BME280;4187;42.778;23.242;2022-09-29T04:57:19;63944.91;;;-141.81;100.00
8298;BME280;4187;42.778;23.242;2022-09-29T04:59:46;63944.91;;;-141.81;100.00
8298;BME280;4187;42.778;23.242;2022-09-29T05:02:16;63944.91;;;-141.81;100.00
8298;BME280;4187;42.778;23.242;2022-09-29T05:04:43;63944.91;;;-141.81;100.00
8298;BME280;4187;42.778;23.242;2022-09-29T05:07:11;63944.91;;;-141.81;100.00
8298;BME280;4187;42.778;23.242;2022-09-29T05:09:38;63944.91;;;-141.81;100.00
8298;BME280;4187;42.778;23.242;2022-09-29T05:12:06;63944.91;;;-141.81;100.00
8298;BME280;4187;42.778;23.242;2022-09-29T05:14:32;63944.91;;;-141.81;100.00
8298;BME280;4187;42.778;23.242;2022-09-29T05:16:59;63944.91;;;-141.81;100.00
8298;BME280;4187;42.778;23.242;2022-09-29T05:19:26;63944.91;;;-141.81;100.00
8298;BME280;4187;42.778;23.242;2022-09-29T05:21:53;63944.91;;;-141.81;100.00
8298;BME280;4187;42.778;23.242;2022-09-29T05:24:21;63944.91;;;-141.81;100.00
8298;BME280;4187;42.778;23.242;2022-09-29T05:26:48;63944.91;;;-141.81;100.00
8298;BME280;4187;42.778;23.242;2022-09-29T05:29:15;63944.91;;;-141.81;100.00
8298;BME280;4187;42.778;23.242;2022-09-29T05:31:42;63944.91;;;-141.81;100.00
8298;BME280;4187;42.778;23.242;2022-09-29T05:34:10;63944.91;;;-141.81;100.00
8298;BME280;4187;42.778;23.242;2022-09-29T05:36:36;63944.91;;;-141.81;100.00
8298;BME280;4187;42.778;23.242;2022-09-29T05:39:03;63944.91;;;-141.81;100.00
8298;BME280;4187;42.778;23.242;2022-09-29T05:41:31;63944.91;;;-141.81;100.00
8298;BME280;4187;42.778;23.242;2022-09-29T05:43:58;63944.91;;;-141.81;100.00
8298;BME280;4187;42.778;23.242;2022-09-29T05:46:26;63944.91;;;-141.81;100.00
8298;BME280;4187;42.778;23.242;2022-09-29T05:48:53;63944.91;;;-141.81;100.00
8298;BME280;4187;42.778;23.242;2022-09-29T05:51:23;63944.91;;;-141.81;100.00
8298;BME280;4187;42.778;23.242;2022-09-29T05:53:51;63944.91;;;-141.81;100.00
8298;BME280;4187;42.778;23.242;2022-09-29T05:56:20;63944.91;;;-141.81;100.00
8298;BME280;4187;42.778;23.242;2022-09-29T05:58:48;63944.91;;;-141.81;100.00
8298;BME280;4187;42.778;23.242;2022-09-29T06:01:17;63944.91;;;-141.81;100.00
8298;BME280;4187;42.778;23.242;2022-09-29T06:03:44;63944.91;;;-141.81;100.00
8298;BME280;4187;42.778;23.242;2022-09-29T06:06:13;63944.91;;;-141.81;100.00
8298;BME280;4187;42.778;23.242;2022-09-29T06:08:40;63944.91;;;-141.81;100.00
8298;BME280;4187;42.778;23.242;2022-09-29T06:11:09;63944.91;;;-141.81;100.00
8298;BME280;4187;42.778;23.242;2022-09-29T06:13:36;63944.91;;;-141.81;100.00
8298;BME280;4187;42.778;23.242;2022-09-29T06:16:05;63944.91;;;-141.81;100.00
8298;BME280;4187;42.778;23.242;2022-09-29T06:18:32;63944.91;;;-141.81;100.00
8298;BME280;4187;42.778;23.242;2022-09-29T06:21:00;63944.91;;;-141.81;100.00
8298;BME280;4187;42.778;23.242;2022-09-29T06:23:27;63944.91;;;-141.81;100.00
8298;BME280;4187;42.778;23.242;2022-09-29T06:25:55;63944.91;;;-141.81;100.00
8298;BME280;4187;42.778;23.242;2022-09-29T06:28:23;63944.91;;;-141.81;100.00
8298;BME280;4187;42.778;23.242;2022-09-29T06:30:50;63944.91;;;-141.81;100.00
8298;BME280;4187;42.778;23.242;2022-09-29T06:33:18;63944.91;;;-141.81;100.00
8298;BME280;4187;42.778;23.242;2022-09-29T06:35:46;63944.91;;;-141.81;100.00
8298;BME280;4187;42.778;23.242;2022-09-29T06:38:30;63944.91;;;-141.81;100.00
8298;BME280;4187;42.778;23.242;2022-09-29T06:40:57;63944.91;;;-141.81;100.00
8298;BME280;4187;42.778;23.242;2022-09-29T06:43:24;63944.91;;;-141.81;100.00
8298;BME280;4187;42.778;23.242;2022-09-29T06:45:51;63944.91;;;-141.81;100.00
8298;BME280;4187;42.778;23.242;2022-09-29T06:48:19;63944.91;;;-141.81;100.00
8298;BME280;4187;42.778;23.242;2022-09-29T06:50:46;63944.91;;;-141.81;100.00
8298;BME280;4187;42.778;23.242;2022-09-29T06:53:13;63944.91;;;-141.81;100.00
8298;BME280;4187;42.778;23.242;2022-09-29T06:55:39;63944.91;;;-141.81;100.00
8298;BME280;4187;42.778;23.242;2022-09-29T06:58:06;63944.91;;;-141.81;100.00
8298;BME280;4187;42.778;23.242;2022-09-29T07:00:34;63944.91;;;-141.81;100.00
8298;BME280;4187;42.778;23.242;2022-09-29T07:03:01;63944.91;;;-141.81;100.00
8298;BME280;4187;42.778;23.242;2022-09-29T07:05:29;63944.91;;;-141.81;100.00
8298;BME280;4187;42.778;23.242;2022-09-29T07:07:55;63944.91;;;-141.81;100.00
8298;BME280;4187;42.778;23.242;2022-09-29T07:10:23;63944.91;;;-141.81;100.00
8298;BME280;4187;42.778;23.242;2022-09-29T07:12:49;63944.91;;;-141.81;100.00
8298;BME280;4187;42.778;23.242;2022-09-29T07:15:17;63944.91;;;-141.81;100.00
8298;BME280;4187;42.778;23.242;2022-09-29T07:17:44;63944.91;;;-141.81;100.00
8298;BME280;4187;42.778;23.242;2022-09-29T07:20:10;63944.91;;;-141.81;100.00
8298;BME280;4187;42.778;23.242;2022-09-29T07:22:38;63944.91;;;-141.81;100.00
8298;BME280;4187;42.778;23.242;2022-09-29T07:25:06;63944.91;;;-141.81;100.00
8298;BME280;4187;42.778;23.242;2022-09-29T07:27:33;63944.91;;;-141.81;100.00
8298;BME280;4187;42.778;23.242;2022-09-29T07:30:00;63944.91;;;-141.81;100.00
8298;BME280;4187;42.778;23.242;2022-09-29T07:32:27;63944.91;;;-141.81;100.00
8298;BME280;4187;42.778;23.242;2022-09-29T07:34:56;63944.91;;;-141.81;100.00
8298;BME280;4187;42.778;23.242;2022-09-29T07:37:24;63944.91;;;-141.81;100.00
8298;BME280;4187;42.778;23.242;2022-09-29T07:39:52;63944.91;;;-141.81;100.00
8298;BME280;4187;42.778;23.242;2022-09-29T07:42:19;63944.91;;;-141.81;100.00
8298;BME280;4187;42.778;23.242;2022-09-29T07:44:46;63944.91;;;-141.81;100.00
8298;BME280;4187;42.778;23.242;2022-09-29T07:47:13;63944.91;;;-141.81;100.00
8298;BME280;4187;42.778;23.242;2022-09-29T07:49:41;63944.91;;;-141.81;100.00
8298;BME280;4187;42.778;23.242;2022-09-29T07:52:07;63944.91;;;-141.81;100.00
8298;BME280;4187;42.778;23.242;2022-09-29T07:54:34;63944.91;;;-141.81;100.00
8298;BME280;4187;42.778;23.242;2022-09-29T07:57:03;63944.91;;;-141.81;100.00
8298;BME280;4187;42.778;23.242;2022-09-29T07:59:30;63944.91;;;-141.81;100.00
8298;BME280;4187;42.778;23.242;2022-09-29T08:01:57;63944.91;;;-141.81;100.00
8298;BME280;4187;42.778;23.242;2022-09-29T08:04:24;63944.91;;;-141.81;100.00
8298;BME280;4187;42.778;23.242;2022-09-29T08:06:50;63944.91;;;-141.81;100.00
8298;BME280;4187;42.778;23.242;2022-09-29T08:09:17;63944.91;;;-141.81;100.00
8298;BME280;4187;42.778;23.242;2022-09-29T08:11:44;63944.91;;;-141.81;100.00
8298;BME280;4187;42.778;23.242;2022-09-29T08:14:12;63944.91;;;-141.81;100.00
8298;BME280;4187;42.778;23.242;2022-09-29T08:16:39;63944.91;;;-141.81;100.00
8298;BME280;4187;42.778;23.242;2022-09-29T08:19:06;63944.91;;;-141.81;100.00
8298;BME280;4187;42.778;23.242;2022-09-29T08:21:33;63944.91;;;-141.81;100.00
8298;BME280;4187;42.778;23.242;2022-09-29T08:24:02;63944.91;;;-141.81;100.00
8298;BME280;4187;42.778;23.242;2022-09-29T08:26:31;63944.91;;;-141.81;100.00
8298;BME280;4187;42.778;23.242;2022-09-29T08:28:59;63944.91;;;-141.81;100.00
8298;BME280;4187;42.778;23.242;2022-09-29T08:31:28;63944.91;;;-141.81;100.00
8298;BME280;4187;42.778;23.242;2022-09-29T08:33:57;63944.91;;;-141.81;100.00
8298;BME280;4187;42.778;23.242;2022-09-29T08:36:24;63944.91;;;-141.81;100.00
8298;BME280;4187;42.778;23.242;2022-09-29T08:38:52;63944.91;;;-141.81;100.00
8298;BME280;4187;42.778;23.242;2022-09-29T08:41:28;63944.91;;;-141.81;100.00
8298;BME280;4187;42.778;23.242;2022-09-29T08:44:00;63944.91;;;-141.81;100.00
8298;BME280;4187;42.778;23.242;2022-09-29T08:46:33;63944.91;;;-141.81;100.00
8298;BME280;4187;42.778;23.242;2022-09-29T08:49:04;63944.91;;;-141.81;100.00
8298;BME280;4187;42.778;23.242;2022-09-29T08:51:35;63944.91;;;-141.81;100.00
8298;BME280;4187;42.778;23.242;2022-09-29T08:54:12;63944.91;;;-141.81;100.00
8298;BME280;4187;42.778;23.242;2022-09-29T08:56:41;63944.91;;;-141.81;100.00
8298;BME280;4187;42.778;23.242;2022-09-29T08:59:08;63944.91;;;-141.81;100.00
8298;BME280;4187;42.778;23.242;2022-09-29T09:01:50;63944.91;;;-141.81;100.00
8298;BME280;4187;42.778;23.242;2022-09-29T09:04:35;63944.91;;;-141.81;100.00
8298;BME280;4187;42.778;23.242;2022-09-29T09:07:09;63944.91;;;-141.81;100.00
8298;BME280;4187;42.778;23.242;2022-09-29T09:09:49;63944.91;;;-141.81;100.00
8298;BME280;4187;42.778;23.242;2022-09-29T09:12:32;63944.91;;;-141.81;100.00
8298;BME280;4187;42.778;23.242;2022-09-29T09:15:16;63944.91;;;-141.81;100.00
8298;BME280;4187;42.778;23.242;2022-09-29T09:18:18;63944.91;;;-141.81;100.00
8298;BME280;4187;42.778;23.242;2022-09-29T09:20:51;63944.91;;;-141.81;100.00
8298;BME280;4187;42.778;23.242;2022-09-29T09:23:21;63944.91;;;-141.81;100.00
8298;BME280;4187;42.778;23.242;2022-09-29T09:25:52;63944.91;;;-141.81;100.00
8298;BME280;4187;42.778;23.242;2022-09-29T09:28:25;63944.91;;;-141.81;100.00
8298;BME280;4187;42.778;23.242;2022-09-29T09:30:54;63944.91;;;-141.81;100.00
8298;BME280;4187;42.778;23.242;2022-09-29T09:33:29;63944.91;;;-141.81;100.00
8298;BME280;4187;42.778;23.242;2022-09-29T09:36:01;63944.91;;;-141.81;100.00
8298;BME280;4187;42.778;23.242;2022-09-29T09:38:40;63944.91;;;-141.81;100.00
8298;BME280;4187;42.778;23.242;2022-09-29T09:41:13;63944.91;;;-141.81;100.00
8298;BME280;4187;42.778;23.242;2022-09-29T09:43:43;63944.91;;;-141.81;100.00
8298;BME280;4187;42.778;23.242;2022-09-29T09:46:16;63944.91;;;-141.81;100.00
8298;BME280;4187;42.778;23.242;2022-09-29T09:48:49;63944.91;;;-141.81;100.00
8298;BME280;4187;42.778;23.242;2022-09-29T09:51:31;63944.91;;;-141.81;100.00
8298;BME280;4187;42.778;23.242;2022-09-29T09:54:03;63944.91;;;-141.81;100.00
8298;BME280;4187;42.778;23.242;2022-09-29T09:56:45;63944.91;;;-141.81;100.00
8298;BME280;4187;42.778;23.242;2022-09-29T09:59:26;63944.91;;;-141.81;100.00
8298;BME280;4187;42.778;23.242;2022-09-29T10:01:57;63944.91;;;-141.81;100.00
8298;BME280;4187;42.778;23.242;2022-09-29T10:04:25;63944.91;;;-141.81;100.00
8298;BME280;4187;42.778;23.242;2022-09-29T10:06:52;63944.91;;;-141.81;100.00
8298;BME280;4187;42.778;23.242;2022-09-29T10:09:19;63944.91;;;-141.81;100.00
8298;BME280;4187;42.778;23.242;2022-09-29T10:11:46;63944.91;;;-141.81;100.00
8298;BME280;4187;42.778;23.242;2022-09-29T10:14:15;63944.91;;;-141.81;100.00
8298;BME280;4187;42.778;23.242;2022-09-29T10:16:47;63944.91;;;-141.81;100.00
8298;BME280;4187;42.778;23.242;2022-09-29T10:19:20;63944.91;;;-141.81;100.00
8298;BME280;4187;42.778;23.242;2022-09-29T10:21:49;63944.91;;;-141.81;100.00
8298;BME280;4187;42.778;23.242;2022-09-29T10:24:21;63944.91;;;-141.81;100.00
8298;BME280;4187;42.778;23.242;2022-09-29T10:26:50;63944.91;;;-141.81;100.00
8298;BME280;4187;42.778;23.242;2022-09-29T10:29:22;63944.91;;;-141.81;100.00
8298;BME280;4187;42.778;23.242;2022-09-29T10:32:05;63944.91;;;-141.81;100.00
8298;BME280;4187;42.778;23.242;2022-09-29T10:34:35;63944.91;;;-141.81;100.00
8298;BME280;4187;42.778;23.242;2022-09-29T10:37:18;63944.91;;;-141.81;100.00
8298;BME280;4187;42.778;23.242;2022-09-29T10:39:48;63944.91;;;-141.81;100.00
8298;BME280;4187;42.778;23.242;2022-09-29T10:42:20;63944.91;;;-141.81;100.00
8298;BME280;4187;42.778;23.242;2022-09-29T10:44:53;63944.91;;;-141.81;100.00
8298;BME280;4187;42.778;23.242;2022-09-29T10:47:21;63944.91;;;-141.81;100.00
8298;BME280;4187;42.778;23.242;2022-09-29T10:50:17;63944.91;;;-141.81;100.00
8298;BME280;4187;42.778;23.242;2022-09-29T10:52:50;63944.91;;;-141.81;100.00
8298;BME280;4187;42.778;23.242;2022-09-29T10:55:21;63944.91;;;-141.81;100.00
8298;BME280;4187;42.778;23.242;2022-09-29T10:57:50;63944.91;;;-141.81;100.00
8298;BME280;4187;42.778;23.242;2022-09-29T11:00:30;63944.91;;;-141.81;100.00
8298;BME280;4187;42.778;23.242;2022-09-29T11:03:03;63944.91;;;-141.81;100.00
8298;BME280;4187;42.778;23.242;2022-09-29T11:05:32;63944.91;;;-141.81;100.00
8298;BME280;4187;42.778;23.242;2022-09-29T11:08:01;63944.91;;;-141.81;100.00
8298;BME280;4187;42.778;23.242;2022-09-29T11:10:31;63944.91;;;-141.81;100.00
8298;BME280;4187;42.778;23.242;2022-09-29T11:15:45;63944.91;;;-141.81;100.00
8298;BME280;4187;42.778;23.242;2022-09-29T11:18:19;63944.91;;;-141.81;100.00
8298;BME280;4187;42.778;23.242;2022-09-29T11:20:50;63944.91;;;-141.81;100.00
8298;BME280;4187;42.778;23.242;2022-09-29T11:23:26;63944.91;;;-141.81;100.00
8298;BME280;4187;42.778;23.242;2022-09-29T11:26:23;63944.91;;;-141.81;100.00
8298;BME280;4187;42.778;23.242;2022-09-29T11:29:04;63944.91;;;-141.81;100.00
8298;BME280;4187;42.778;23.242;2022-09-29T11:31:41;63944.91;;;-141.81;100.00
8298;BME280;4187;42.778;23.242;2022-09-29T11:34:32;63944.91;;;-141.81;100.00
8298;BME280;4187;42.778;23.242;2022-09-29T11:37:12;63944.91;;;-141.81;100.00
8298;BME280;4187;42.778;23.242;2022-09-29T11:39:49;63944.91;;;-141.81;100.00
8298;BME280;4187;42.778;23.242;2022-09-29T11:42:30;63944.91;;;-141.81;100.00
8298;BME280;4187;42.778;23.242;2022-09-29T11:45:01;63944.91;;;-141.81;100.00
8298;BME280;4187;42.778;23.242;2022-09-29T11:50:34;63944.91;;;-141.81;100.00
8298;BME280;4187;42.778;23.242;2022-09-29T11:53:18;63944.91;;;-141.81;100.00
8298;BME280;4187;42.778;23.242;2022-09-29T11:56:02;63944.91;;;-141.81;100.00
8298;BME280;4187;42.778;23.242;2022-09-29T11:58:49;63944.91;;;-141.81;100.00
8298;BME280;4187;42.778;23.242;2022-09-29T12:01:28;63944.91;;;-141.81;100.00
8298;BME280;4187;42.778;23.242;2022-09-29T12:04:07;63944.91;;;-141.81;100.00
8298;BME280;4187;42.778;23.242;2022-09-29T12:06:46;63944.91;;;-141.81;100.00
8298;BME280;4187;42.778;23.242;2022-09-29T12:09:32;63944.91;;;-141.81;100.00
8298;BME280;4187;42.778;23.242;2022-09-29T12:12:09;63944.91;;;-141.81;100.00
8298;BME280;4187;42.778;23.242;2022-09-29T12:14:57;63944.91;;;-141.81;100.00
8298;BME280;4187;42.778;23.242;2022-09-29T12:17:28;63944.91;;;-141.81;100.00
8298;BME280;4187;42.778;23.242;2022-09-29T12:20:03;63944.91;;;-141.81;100.00
8298;BME280;4187;42.778;23.242;2022-09-29T12:22:33;63944.91;;;-141.81;100.00
8298;BME280;4187;42.778;23.242;2022-09-29T12:25:01;63944.91;;;-141.81;100.00
8298;BME280;4187;42.778;23.242;2022-09-29T12:27:33;63944.91;;;-141.81;100.00
8298;BME280;4187;42.778;23.242;2022-09-29T12:30:03;63944.91;;;-141.81;100.00
8298;BME280;4187;42.778;23.242;2022-09-29T12:32:36;63944.91;;;-141.81;100.00
8298;BME280;4187;42.778;23.242;2022-09-29T12:35:11;63944.91;;;-141.81;100.00
8298;BME280;4187;42.778;23.242;2022-09-29T12:37:46;63944.91;;;-141.81;100.00
8298;BME280;4187;42.778;23.242;2022-09-29T12:40:20;63944.91;;;-141.81;100.00
8298;BME280;4187;42.778;23.242;2022-09-29T12:43:02;63944.91;;;-141.81;100.00
8298;BME280;4187;42.778;23.242;2022-09-29T12:45:36;63944.91;;;-141.81;100.00
8298;BME280;4187;42.778;23.242;2022-09-29T12:48:28;63944.91;;;-141.81;100.00
8298;BME280;4187;42.778;23.242;2022-09-29T12:51:01;63944.91;;;-141.81;100.00
8298;BME280;4187;42.778;23.242;2022-09-29T12:53:33;63944.91;;;-141.81;100.00
8298;BME280;4187;42.778;23.242;2022-09-29T12:56:03;63944.91;;;-141.81;100.00
8298;BME280;4187;42.778;23.242;2022-09-29T12:58:39;63944.91;;;-141.81;100.00
8298;BME280;4187;42.778;23.242;2022-09-29T13:01:20;63944.91;;;-141.81;100.00
8298;BME280;4187;42.778;23.242;2022-09-29T13:06:59;63944.91;;;-141.81;100.00
8298;BME280;4187;42.778;23.242;2022-09-29T13:09:46;63944.91;;;-141.81;100.00
8298;BME280;4187;42.778;23.242;2022-09-29T13:12:32;63944.91;;;-141.81;100.00
8298;BME280;4187;42.778;23.242;2022-09-29T13:15:30;63944.91;;;-141.81;100.00
8298;BME280;4187;42.778;23.242;2022-09-29T13:18:28;63944.91;;;-141.81;100.00
8298;BME280;4187;42.778;23.242;2022-09-29T13:21:05;63944.91;;;-141.81;100.00